createdAt,value
2018-08-27T00:00:57.806Z,81.41
2018-08-27T00:01:57.726Z,82.08
2018-08-27T00:02:57.654Z,81.70
2018-08-27T00:03:57.574Z,81.51
2018-08-27T00:05:18.485Z,81.51
2018-08-27T00:05:57.418Z,81.13
2018-08-27T00:06:57.352Z,81.60
2018-08-27T00:07:57.259Z,81.79
2018-08-27T00:08:57.194Z,81.70
2018-08-27T00:09:57.125Z,81.60
2018-08-27T00:11:18.015Z,80.84
2018-08-27T00:11:56.963Z,80.65
2018-08-27T00:12:56.877Z,81.41
2018-08-27T00:13:56.811Z,81.41
2018-08-27T00:14:56.716Z,81.70
2018-08-27T00:15:56.646Z,81.98
2018-08-27T00:17:17.548Z,81.41
2018-08-27T00:17:56.494Z,82.18
2018-08-27T00:18:56.413Z,81.98
2018-08-27T00:19:56.344Z,82.14
2018-08-27T00:20:56.254Z,82.04
2018-08-27T00:21:56.186Z,81.47
2018-08-27T00:23:17.076Z,81.37
2018-08-27T00:23:56.024Z,81.95
2018-08-27T00:24:55.952Z,81.76
2018-08-27T00:25:55.871Z,82.70
2018-08-27T00:26:55.778Z,82.90
2018-08-27T00:27:55.709Z,82.90
2018-08-27T00:29:16.610Z,82.80
2018-08-27T00:29:55.564Z,82.32
2018-08-27T00:30:55.486Z,81.56
2018-08-27T00:31:55.402Z,81.66
2018-08-27T00:32:55.314Z,82.42
2018-08-27T00:33:55.245Z,82.23
2018-08-27T00:35:16.137Z,82.51
2018-08-27T00:35:55.088Z,81.85
2018-08-27T00:36:55.008Z,80.99
2018-08-27T00:37:54.939Z,80.33
2018-08-27T00:38:54.850Z,79.85
2018-08-27T00:39:54.781Z,79.85
2018-08-27T00:41:15.677Z,80.33
2018-08-27T00:41:54.625Z,82.04
2018-08-27T00:42:54.536Z,81.81
2018-08-27T00:43:54.467Z,82.23
2018-08-27T00:44:54.389Z,82.04
2018-08-27T00:45:54.316Z,81.56
2018-08-27T00:47:15.211Z,81.47
2018-08-27T00:47:54.159Z,80.61
2018-08-27T00:48:54.070Z,79.66
2018-08-27T00:49:54.001Z,79.38
2018-08-27T00:50:53.912Z,79.94
2018-08-27T00:51:53.848Z,79.52
2018-08-27T00:53:14.745Z,80.47
2018-08-27T00:53:53.684Z,81.43
2018-08-27T00:54:53.610Z,82.38
2018-08-27T00:55:53.607Z,82.09
2018-08-27T00:56:53.452Z,83.14
2018-08-27T00:57:53.375Z,83.90
2018-08-27T00:59:14.274Z,83.81
2018-08-27T00:59:53.223Z,83.14
2018-08-27T01:00:53.132Z,83.81
2018-08-27T01:01:53.063Z,83.42
2018-08-27T01:02:52.978Z,83.23
2018-08-27T01:03:52.909Z,83.14
2018-08-27T01:05:13.808Z,82.95
2018-08-27T01:05:52.758Z,83.71
2018-08-27T01:06:52.674Z,83.67
2018-08-27T01:07:52.591Z,83.86
2018-08-27T01:08:52.513Z,83.39
2018-08-27T01:09:52.443Z,82.34
2018-08-27T01:11:13.337Z,81.86
2018-08-27T01:11:52.284Z,83.00
2018-08-27T01:12:52.193Z,83.19
2018-08-27T01:13:52.126Z,83.67
2018-08-27T01:14:52.036Z,83.19
2018-08-27T01:15:51.968Z,82.34
2018-08-27T01:17:12.869Z,82.24
2018-08-27T01:17:51.814Z,83.48
2018-08-27T01:18:51.730Z,84.72
2018-08-27T01:19:51.650Z,84.81
2018-08-27T01:20:51.578Z,84.72
2018-08-27T01:21:51.508Z,84.24
2018-08-27T01:23:12.394Z,82.34
2018-08-27T01:23:51.349Z,80.53
2018-08-27T01:24:51.256Z,78.53
2018-08-27T01:25:51.187Z,78.82
2018-08-27T01:26:51.099Z,79.96
2018-08-27T01:27:51.030Z,80.44
2018-08-27T01:29:11.929Z,80.53
2018-08-27T01:29:50.873Z,81.38
2018-08-27T01:30:50.796Z,83.10
2018-08-27T01:31:50.715Z,83.95
2018-08-27T01:32:50.636Z,83.48
2018-08-27T01:33:50.556Z,83.86
2018-08-27T01:35:11.460Z,84.24
2018-08-27T01:35:50.402Z,84.52
2018-08-27T01:36:50.322Z,86.43
2018-08-27T01:37:50.252Z,86.71
2018-08-27T01:38:50.165Z,87.28
2018-08-27T01:39:50.092Z,87.57
2018-08-27T01:41:10.985Z,88.04
2018-08-27T01:41:49.936Z,88.71
2018-08-27T01:42:49.845Z,87.85
2018-08-27T01:43:49.779Z,87.19
2018-08-27T01:44:49.690Z,87.19
2018-08-27T01:45:49.621Z,87.28
2018-08-27T01:47:10.516Z,87.09
2018-08-27T01:47:49.464Z,86.61
2018-08-27T01:48:49.382Z,86.05
2018-08-27T01:49:49.308Z,86.14
2018-08-27T01:50:49.214Z,85.43
2018-08-27T01:51:49.146Z,85.34
2018-08-27T01:53:10.043Z,85.62
2018-08-27T01:53:48.996Z,86.86
2018-08-27T01:54:48.907Z,87.62
2018-08-27T01:55:48.839Z,86.86
2018-08-27T01:56:48.752Z,86.38
2018-08-27T01:57:48.684Z,86.76
2018-08-27T01:59:09.575Z,86.10
2018-08-27T01:59:48.526Z,85.15
2018-08-27T02:00:48.433Z,84.95
2018-08-27T02:01:48.364Z,84.58
2018-08-27T02:02:48.275Z,83.72
2018-08-27T02:03:48.209Z,83.62
2018-08-27T02:05:09.102Z,84.01
2018-08-27T02:05:48.048Z,85.34
2018-08-27T02:06:47.959Z,85.34
2018-08-27T02:07:47.892Z,84.39
2018-08-27T02:08:47.803Z,82.39
2018-08-27T02:09:47.734Z,81.63
2018-08-27T02:11:08.624Z,82.39
2018-08-27T02:11:47.576Z,83.62
2018-08-27T02:12:47.487Z,85.43
2018-08-27T02:13:47.418Z,88.28
2018-08-27T02:14:47.328Z,89.52
2018-08-27T02:15:47.262Z,89.80
2018-08-27T02:17:08.151Z,88.67
2018-08-27T02:17:47.108Z,89.33
2018-08-27T02:18:47.025Z,89.23
2018-08-27T02:19:46.946Z,89.23
2018-08-27T02:20:46.863Z,89.04
2018-08-27T02:21:46.788Z,89.33
2018-08-27T02:23:07.690Z,88.85
2018-08-27T02:23:46.630Z,88.09
2018-08-27T02:24:46.557Z,88.85
2018-08-27T02:25:46.514Z,88.57
2018-08-27T02:26:46.414Z,87.81
2018-08-27T02:27:46.314Z,87.43
2018-08-27T02:29:07.216Z,87.62
2018-08-27T02:29:46.159Z,86.19
2018-08-27T02:30:46.074Z,84.58
2018-08-27T02:31:46.002Z,84.77
2018-08-27T02:32:45.917Z,85.05
2018-08-27T02:33:45.855Z,83.91
2018-08-27T02:35:06.762Z,82.49
2018-08-27T02:35:45.692Z,81.92
2018-08-27T02:36:45.600Z,83.06
2018-08-27T02:37:45.532Z,83.25
2018-08-27T02:38:45.446Z,83.82
2018-08-27T02:39:45.374Z,84.10
2018-08-27T02:41:06.272Z,85.24
2018-08-27T02:41:45.218Z,86.00
2018-08-27T02:42:45.126Z,86.57
2018-08-27T02:43:45.060Z,87.62
2018-08-27T02:44:44.972Z,88.57
2018-08-27T02:45:44.900Z,88.76
2018-08-27T02:47:05.790Z,88.76
2018-08-27T02:47:44.750Z,87.24
2018-08-27T02:48:44.653Z,86.00
2018-08-27T02:49:44.585Z,85.34
2018-08-27T02:50:44.496Z,85.15
2018-08-27T02:51:44.426Z,86.57
2018-08-27T02:53:05.323Z,86.86
2018-08-27T02:53:44.271Z,87.34
2018-08-27T02:54:44.181Z,87.90
2018-08-27T02:55:44.114Z,88.47
2018-08-27T02:56:44.024Z,88.76
2018-08-27T02:57:43.955Z,88.95
2018-08-27T02:59:04.846Z,88.67
2018-08-27T02:59:43.797Z,88.67
2018-08-27T03:00:43.708Z,88.47
2018-08-27T03:01:43.639Z,89.80
2018-08-27T03:02:43.547Z,89.23
2018-08-27T03:03:43.481Z,90.37
2018-08-27T03:05:04.369Z,90.09
2018-08-27T03:05:43.319Z,89.42
2018-08-27T03:06:43.230Z,87.71
2018-08-27T03:07:44.163Z,85.91
2018-08-27T03:08:43.074Z,84.58
2018-08-27T03:09:43.004Z,83.91
2018-08-27T03:11:03.911Z,83.25
2018-08-27T03:11:42.849Z,82.96
2018-08-27T03:12:42.757Z,83.25
2018-08-27T03:13:42.688Z,83.15
2018-08-27T03:14:42.602Z,82.87
2018-08-27T03:15:42.533Z,83.34
2018-08-27T03:17:03.422Z,84.20
2018-08-27T03:17:42.379Z,84.95
2018-08-27T03:18:42.286Z,86.19
2018-08-27T03:19:42.214Z,88.09
2018-08-27T03:20:42.127Z,89.04
2018-08-27T03:21:42.057Z,90.09
2018-08-27T03:23:02.949Z,90.19
2018-08-27T03:23:41.901Z,90.66
2018-08-27T03:24:41.809Z,91.71
2018-08-27T03:25:41.740Z,92.85
2018-08-27T03:26:41.652Z,91.89
2018-08-27T03:27:41.652Z,90.85
2018-08-27T03:29:02.473Z,90.85
2018-08-27T03:29:41.423Z,90.28
2018-08-27T03:30:41.335Z,90.00
2018-08-27T03:31:41.270Z,90.75
2018-08-27T03:32:41.177Z,90.75
2018-08-27T03:33:41.108Z,90.33
2018-08-27T03:35:02.005Z,88.43
2018-08-27T03:35:40.953Z,89.38
2018-08-27T03:36:40.861Z,89.76
2018-08-27T03:37:40.792Z,89.19
2018-08-27T03:38:40.705Z,87.19
2018-08-27T03:39:40.640Z,84.34
2018-08-27T03:41:01.527Z,83.87
2018-08-27T03:41:40.480Z,83.97
2018-08-27T03:42:40.387Z,85.68
2018-08-27T03:43:40.324Z,85.39
2018-08-27T03:44:40.229Z,86.15
2018-08-27T03:45:40.163Z,87.95
2018-08-27T03:47:01.052Z,89.28
2018-08-27T03:47:40.002Z,89.38
2018-08-27T03:48:40.011Z,88.53
2018-08-27T03:49:39.844Z,89.38
2018-08-27T03:50:39.756Z,90.90
2018-08-27T03:51:39.687Z,91.28
2018-08-27T03:53:00.582Z,90.99
2018-08-27T03:53:39.534Z,91.85
2018-08-27T03:54:39.440Z,91.56
2018-08-27T03:55:39.375Z,91.94
2018-08-27T03:56:39.283Z,90.71
2018-08-27T03:57:39.216Z,91.75
2018-08-27T03:59:00.109Z,93.84
2018-08-27T03:59:39.054Z,93.27
2018-08-27T04:00:38.965Z,93.32
2018-08-27T04:01:38.896Z,94.08
2018-08-27T04:02:38.811Z,93.79
2018-08-27T04:03:38.742Z,93.23
2018-08-27T04:04:59.632Z,93.23
2018-08-27T04:05:38.585Z,93.04
2018-08-27T04:06:38.493Z,93.13
2018-08-27T04:07:38.421Z,92.94
2018-08-27T04:08:38.345Z,92.46
2018-08-27T04:09:38.277Z,92.56
2018-08-27T04:10:59.161Z,92.37
2018-08-27T04:11:38.096Z,92.85
2018-08-27T04:12:38.018Z,92.56
2018-08-27T04:13:37.949Z,92.70
2018-08-27T04:14:37.859Z,91.85
2018-08-27T04:15:37.795Z,91.56
2018-08-27T04:16:58.681Z,91.75
2018-08-27T04:17:37.636Z,91.56
2018-08-27T04:18:37.544Z,91.75
2018-08-27T04:19:37.474Z,91.47
2018-08-27T04:20:37.385Z,91.56
2018-08-27T04:21:37.320Z,90.89
2018-08-27T04:22:58.208Z,90.52
2018-08-27T04:23:37.150Z,89.75
2018-08-27T04:24:37.071Z,86.24
2018-08-27T04:25:36.990Z,83.86
2018-08-27T04:26:36.912Z,83.58
2018-08-27T04:27:36.834Z,83.95
2018-08-27T04:28:57.735Z,84.86
2018-08-27T04:29:36.690Z,85.72
2018-08-27T04:30:36.600Z,86.19
2018-08-27T04:31:36.534Z,86.38
2018-08-27T04:32:36.438Z,88.00
2018-08-27T04:33:36.359Z,89.61
2018-08-27T04:34:57.308Z,89.52
2018-08-27T04:35:36.203Z,89.71
2018-08-27T04:36:36.126Z,90.47
2018-08-27T04:37:36.053Z,90.19
2018-08-27T04:38:35.964Z,90.85
2018-08-27T04:39:35.895Z,91.80
2018-08-27T04:40:56.789Z,91.80
2018-08-27T04:41:35.745Z,92.37
2018-08-27T04:42:35.694Z,92.85
2018-08-27T04:43:35.579Z,92.75
2018-08-27T04:44:35.490Z,92.75
2018-08-27T04:45:35.447Z,93.23
2018-08-27T04:46:56.329Z,93.04
2018-08-27T04:47:35.253Z,93.70
2018-08-27T04:48:35.177Z,93.79
2018-08-27T04:49:35.095Z,92.94
2018-08-27T04:50:35.002Z,93.23
2018-08-27T04:51:34.949Z,93.60
2018-08-27T04:52:55.839Z,93.89
2018-08-27T04:53:34.795Z,93.51
2018-08-27T04:54:34.705Z,93.70
2018-08-27T04:55:34.632Z,93.27
2018-08-27T04:56:34.547Z,93.75
2018-08-27T04:57:34.464Z,94.13
2018-08-27T04:58:55.365Z,93.84
2018-08-27T04:59:34.306Z,93.84
2018-08-27T05:00:34.227Z,94.03
2018-08-27T05:01:34.149Z,94.32
2018-08-27T05:02:34.069Z,93.94
2018-08-27T05:03:33.991Z,94.03
2018-08-27T05:04:54.892Z,94.03
2018-08-27T05:05:33.842Z,93.75
2018-08-27T05:06:33.752Z,93.46
2018-08-27T05:07:33.675Z,93.23
2018-08-27T05:08:33.599Z,93.04
2018-08-27T05:09:33.536Z,92.46
2018-08-27T05:10:54.422Z,91.70
2018-08-27T05:11:33.374Z,91.42
2018-08-27T05:12:33.329Z,91.61
2018-08-27T05:13:33.201Z,90.84
2018-08-27T05:14:33.131Z,90.56
2018-08-27T05:15:33.043Z,89.89
2018-08-27T05:16:53.944Z,89.94
2018-08-27T05:17:32.908Z,89.56
2018-08-27T05:18:32.809Z,89.27
2018-08-27T05:19:32.732Z,89.56
2018-08-27T05:20:32.646Z,89.08
2018-08-27T05:21:32.578Z,89.75
2018-08-27T05:22:53.472Z,89.56
2018-08-27T05:23:32.424Z,89.18
2018-08-27T05:24:32.331Z,89.18
2018-08-27T05:25:32.267Z,88.99
2018-08-27T05:26:32.174Z,89.65
2018-08-27T05:27:32.163Z,89.56
2018-08-27T05:28:52.998Z,89.18
2018-08-27T05:29:31.949Z,89.03
2018-08-27T05:30:31.912Z,88.93
2018-08-27T05:31:31.797Z,88.65
2018-08-27T05:32:31.702Z,88.18
2018-08-27T05:33:31.630Z,87.98
2018-08-27T05:34:52.523Z,87.79
2018-08-27T05:35:31.478Z,87.32
2018-08-27T05:36:31.383Z,87.23
2018-08-27T05:37:31.316Z,86.55
2018-08-27T05:38:31.240Z,86.32
2018-08-27T05:39:31.161Z,85.36
2018-08-27T05:40:52.057Z,84.79
2018-08-27T05:41:30.999Z,84.22
2018-08-27T05:42:30.930Z,84.22
2018-08-27T05:43:30.854Z,84.22
2018-08-27T05:44:30.783Z,83.26
2018-08-27T05:45:31.531Z,82.54
2018-08-27T05:46:51.583Z,81.59
2018-08-27T05:47:30.532Z,81.88
2018-08-27T05:48:30.450Z,81.02
2018-08-27T05:49:30.377Z,80.26
2018-08-27T05:50:30.299Z,79.44
2018-08-27T05:51:30.219Z,78.67
2018-08-27T05:52:51.113Z,78.20
2018-08-27T05:53:30.060Z,78.20
2018-08-27T05:54:29.974Z,78.39
2018-08-27T05:55:29.903Z,78.58
2018-08-27T05:56:29.824Z,78.20
2018-08-27T05:57:29.760Z,76.77
2018-08-27T05:58:50.647Z,77.62
2018-08-27T05:59:29.596Z,77.38
2018-08-27T06:00:29.509Z,76.81
2018-08-27T06:01:29.491Z,77.19
2018-08-27T06:02:29.353Z,76.42
2018-08-27T06:03:29.280Z,75.95
2018-08-27T06:04:50.173Z,76.52
2018-08-27T06:05:29.122Z,76.62
2018-08-27T06:06:29.034Z,76.81
2018-08-27T06:07:28.969Z,76.04
2018-08-27T06:08:28.885Z,75.57
2018-08-27T06:09:28.820Z,76.04
2018-08-27T06:10:49.711Z,76.81
2018-08-27T06:11:28.659Z,76.62
2018-08-27T06:12:28.573Z,76.71
2018-08-27T06:13:28.501Z,77.09
2018-08-27T06:14:28.412Z,76.42
2018-08-27T06:15:28.429Z,75.57
2018-08-27T06:16:49.257Z,75.28
2018-08-27T06:17:28.225Z,75.37
2018-08-27T06:18:28.109Z,76.52
2018-08-27T06:19:28.141Z,77.00
2018-08-27T06:20:27.947Z,77.28
2018-08-27T06:21:27.953Z,75.95
2018-08-27T06:22:48.771Z,75.13
2018-08-27T06:23:27.764Z,75.13
2018-08-27T06:24:27.642Z,75.03
2018-08-27T06:25:27.668Z,75.22
2018-08-27T06:26:27.484Z,74.84
2018-08-27T06:27:27.477Z,73.98
2018-08-27T06:28:48.316Z,73.98
2018-08-27T06:29:27.290Z,74.37
2018-08-27T06:30:27.170Z,74.17
2018-08-27T06:31:27.198Z,74.27
2018-08-27T06:32:27.068Z,75.22
2018-08-27T06:33:27.005Z,74.37
2018-08-27T06:34:47.842Z,74.27
2018-08-27T06:35:26.814Z,73.73
2018-08-27T06:36:26.706Z,73.50
2018-08-27T06:37:26.728Z,72.68
2018-08-27T06:38:26.559Z,72.01
2018-08-27T06:39:26.527Z,72.39
2018-08-27T06:40:47.378Z,72.11
2018-08-27T06:41:26.342Z,71.06
2018-08-27T06:42:26.248Z,71.82
2018-08-27T06:43:26.253Z,72.01
2018-08-27T06:44:26.109Z,71.44
2018-08-27T06:45:26.023Z,72.11
2018-08-27T06:46:46.956Z,71.63
2018-08-27T06:47:25.865Z,71.63
2018-08-27T06:48:25.877Z,71.34
2018-08-27T06:49:25.718Z,71.38
2018-08-27T06:50:25.678Z,71.38
2018-08-27T06:51:25.553Z,71.09
2018-08-27T06:52:46.484Z,70.23
2018-08-27T06:53:25.391Z,70.81
2018-08-27T06:54:25.418Z,70.71
2018-08-27T06:55:25.243Z,70.52
2018-08-27T06:56:25.221Z,70.04
2018-08-27T06:57:25.085Z,69.85
2018-08-27T06:58:46.007Z,70.81
2018-08-27T06:59:24.937Z,70.42
2018-08-27T07:00:24.928Z,70.14
2018-08-27T07:01:24.780Z,69.76
2018-08-27T07:02:24.801Z,69.95
2018-08-27T07:03:24.622Z,69.56
2018-08-27T07:04:45.646Z,69.47
2018-08-27T07:05:24.479Z,69.56
2018-08-27T07:06:24.455Z,69.66
2018-08-27T07:07:24.316Z,69.09
2018-08-27T07:08:24.266Z,68.70
2018-08-27T07:09:24.173Z,68.70
2018-08-27T07:10:45.082Z,68.90
2018-08-27T07:11:24.083Z,68.93
2018-08-27T07:12:23.944Z,68.93
2018-08-27T07:13:23.891Z,68.74
2018-08-27T07:14:23.789Z,69.18
2018-08-27T07:15:23.805Z,68.45
2018-08-27T07:16:44.606Z,68.93
2018-08-27T07:17:23.605Z,68.55
2018-08-27T07:18:23.471Z,68.84
2018-08-27T07:19:23.420Z,67.97
2018-08-27T07:20:23.327Z,68.35
2018-08-27T07:21:23.337Z,69.21
2018-08-27T07:22:44.145Z,68.74
2018-08-27T07:23:23.143Z,68.77
2018-08-27T07:24:23.014Z,68.01
2018-08-27T07:25:22.944Z,68.10
2018-08-27T07:26:22.955Z,68.10
2018-08-27T07:27:22.840Z,67.14
2018-08-27T07:28:43.753Z,66.47
2018-08-27T07:29:22.637Z,66.38
2018-08-27T07:30:22.561Z,66.38
2018-08-27T07:31:22.585Z,66.76
2018-08-27T07:32:22.405Z,66.03
2018-08-27T07:33:22.382Z,66.41
2018-08-27T07:34:43.237Z,67.27
2018-08-27T07:35:22.196Z,66.13
2018-08-27T07:36:22.101Z,66.70
2018-08-27T07:37:22.107Z,65.26
2018-08-27T07:38:21.940Z,65.08
2018-08-27T07:39:21.909Z,65.26
2018-08-27T07:40:42.773Z,64.22
2018-08-27T07:41:21.821Z,64.98
2018-08-27T07:42:21.633Z,64.59
2018-08-27T07:43:21.688Z,64.72
2018-08-27T07:44:21.487Z,65.49
2018-08-27T07:45:21.445Z,65.01
2018-08-27T07:46:42.307Z,64.25
2018-08-27T07:47:21.370Z,64.25
2018-08-27T07:48:21.189Z,63.67
2018-08-27T07:49:21.161Z,63.51
2018-08-27T07:50:21.019Z,63.03
2018-08-27T07:51:20.986Z,62.84
2018-08-27T07:52:41.855Z,62.74
2018-08-27T07:53:20.886Z,62.84
2018-08-27T07:54:20.727Z,62.65
2018-08-27T07:55:20.684Z,62.49
2018-08-27T07:56:20.570Z,62.01
2018-08-27T07:57:20.596Z,61.91
2018-08-27T07:58:41.401Z,61.63
2018-08-27T07:59:20.410Z,61.27
2018-08-27T08:00:20.270Z,61.08
2018-08-27T08:01:20.221Z,60.70
2018-08-27T08:02:20.112Z,60.12
2018-08-27T08:03:20.122Z,59.83
2018-08-27T08:04:41.027Z,59.45
2018-08-27T08:05:19.939Z,58.78
2018-08-27T08:06:19.819Z,59.06
2018-08-27T08:07:19.922Z,59.83
2018-08-27T08:08:19.660Z,59.55
2018-08-27T08:09:19.594Z,59.38
2018-08-27T08:10:40.492Z,59.77
2018-08-27T08:11:19.461Z,59.38
2018-08-27T08:12:19.363Z,59.48
2018-08-27T08:13:19.380Z,59.00
2018-08-27T08:14:19.205Z,58.52
2018-08-27T08:15:19.185Z,58.42
2018-08-27T08:16:40.038Z,57.95
2018-08-27T08:17:19.098Z,57.75
2018-08-27T08:18:18.908Z,57.78
2018-08-27T08:19:18.900Z,57.97
2018-08-27T08:20:18.763Z,57.78
2018-08-27T08:21:18.710Z,57.97
2018-08-27T08:22:39.603Z,56.66
2018-08-27T08:23:18.627Z,56.85
2018-08-27T08:24:18.464Z,55.69
2018-08-27T08:25:18.435Z,54.57
2018-08-27T08:26:18.312Z,54.09
2018-08-27T08:27:18.336Z,53.90
2018-08-27T08:28:39.149Z,53.52
2018-08-27T08:29:18.151Z,53.74
2018-08-27T08:30:18.015Z,53.54
2018-08-27T08:31:17.963Z,52.58
2018-08-27T08:32:17.862Z,52.39
2018-08-27T08:33:17.908Z,51.62
2018-08-27T08:34:38.699Z,52.58
2018-08-27T08:35:17.676Z,52.29
2018-08-27T08:36:17.574Z,52.61
2018-08-27T08:37:17.588Z,51.93
2018-08-27T08:38:17.420Z,52.70
2018-08-27T08:39:17.400Z,51.26
2018-08-27T08:40:38.260Z,50.87
2018-08-27T08:41:17.314Z,50.87
2018-08-27T08:42:17.123Z,50.81
2018-08-27T08:43:18.143Z,51.38
2018-08-27T08:44:16.974Z,49.55
2018-08-27T08:45:16.909Z,49.27
2018-08-27T08:46:37.928Z,48.49
2018-08-27T08:47:16.760Z,48.11
2018-08-27T08:48:16.691Z,48.49
2018-08-27T08:49:16.612Z,48.59
2018-08-27T08:50:16.541Z,49.38
2018-08-27T08:51:16.554Z,47.85
2018-08-27T08:52:37.379Z,46.59
2018-08-27T08:53:16.421Z,46.11
2018-08-27T08:54:16.244Z,47.39
2018-08-27T08:55:16.279Z,47.27
2018-08-27T08:56:16.104Z,47.56
2018-08-27T08:57:16.088Z,47.27
2018-08-27T08:58:36.931Z,47.63
2018-08-27T08:59:15.989Z,47.72
2018-08-27T09:00:15.801Z,48.40
2018-08-27T09:01:15.864Z,47.92
2018-08-27T09:02:15.653Z,47.63
2018-08-27T09:03:15.617Z,47.63
2018-08-27T09:04:36.500Z,47.24
2018-08-27T09:05:15.449Z,46.95
2018-08-27T09:06:15.431Z,45.61
2018-08-27T09:07:15.297Z,45.42
2018-08-27T09:08:15.412Z,44.76
2018-08-27T09:09:15.153Z,45.25
2018-08-27T09:10:36.075Z,45.44
2018-08-27T09:11:15.053Z,45.05
2018-08-27T09:12:14.937Z,45.05
2018-08-27T09:13:14.965Z,45.44
2018-08-27T09:14:14.786Z,44.57
2018-08-27T09:15:14.766Z,44.21
2018-08-27T09:16:35.647Z,44.40
2018-08-27T09:17:14.690Z,44.11
2018-08-27T09:18:14.490Z,43.63
2018-08-27T09:19:14.497Z,44.02
2018-08-27T09:20:14.352Z,44.59
2018-08-27T09:21:14.293Z,44.57
2018-08-27T09:22:35.223Z,45.63
2018-08-27T09:23:14.206Z,45.34
2018-08-27T09:24:14.067Z,45.63
2018-08-27T09:25:14.018Z,45.75
2018-08-27T09:26:13.918Z,45.17
2018-08-27T09:27:13.929Z,44.79
2018-08-27T09:28:34.760Z,44.98
2018-08-27T09:29:13.740Z,45.68
2018-08-27T09:30:13.635Z,45.00
2018-08-27T09:31:13.718Z,44.23
2018-08-27T09:32:13.485Z,43.94
2018-08-27T09:33:13.523Z,43.65
2018-08-27T09:34:34.315Z,44.62
2018-08-27T09:35:13.277Z,43.94
2018-08-27T09:36:13.279Z,44.42
2018-08-27T09:37:13.132Z,43.75
2018-08-27T09:38:13.081Z,43.65
2018-08-27T09:39:12.984Z,43.94
2018-08-27T09:40:33.903Z,44.45
2018-08-27T09:41:12.895Z,43.29
2018-08-27T09:42:12.766Z,42.88
2018-08-27T09:43:12.805Z,43.27
2018-08-27T09:44:12.620Z,45.29
2018-08-27T09:45:12.618Z,46.35
2018-08-27T09:46:33.462Z,45.48
2018-08-27T09:47:12.432Z,45.87
2018-08-27T09:48:12.332Z,45.68
2018-08-27T09:49:12.333Z,47.31
2018-08-27T09:50:12.191Z,47.51
2018-08-27T09:51:12.140Z,45.48
2018-08-27T09:52:33.039Z,43.27
2018-08-27T09:53:12.134Z,41.05
2018-08-27T09:54:11.915Z,42.79
2018-08-27T09:55:11.841Z,44.35
2018-08-27T09:56:11.867Z,44.35
2018-08-27T09:57:11.689Z,43.12
2018-08-27T09:58:32.677Z,41.60
2018-08-27T09:59:11.574Z,42.87
2018-08-27T10:00:11.484Z,41.61
2018-08-27T10:01:11.494Z,41.33
2018-08-27T10:02:11.333Z,40.94
2018-08-27T10:03:11.309Z,40.36
2018-08-27T10:04:32.178Z,41.54
2018-08-27T10:05:11.217Z,40.26
2018-08-27T10:06:11.051Z,39.80
2018-08-27T10:07:11.021Z,39.20
2018-08-27T10:08:10.902Z,39.12
2018-08-27T10:09:11.023Z,37.75
2018-08-27T10:10:31.743Z,37.46
2018-08-27T10:11:10.743Z,37.54
2018-08-27T10:12:10.627Z,38.60
2018-08-27T10:13:10.655Z,38.87
2018-08-27T10:14:10.479Z,39.16
2018-08-27T10:15:10.460Z,39.64
2018-08-27T10:16:31.319Z,40.70
2018-08-27T10:17:10.379Z,40.32
2018-08-27T10:18:10.204Z,39.64
2018-08-27T10:19:10.188Z,39.54
2018-08-27T10:20:10.051Z,39.54
2018-08-27T10:21:10.102Z,39.45
2018-08-27T10:22:30.943Z,40.99
2018-08-27T10:23:09.906Z,41.02
2018-08-27T10:24:09.782Z,41.69
2018-08-27T10:25:09.849Z,39.66
2018-08-27T10:26:09.629Z,39.47
2018-08-27T10:27:09.622Z,39.18
2018-08-27T10:28:30.473Z,39.18
2018-08-27T10:29:09.534Z,39.86
2018-08-27T10:30:09.345Z,39.09
2018-08-27T10:31:09.346Z,38.60
2018-08-27T10:32:09.204Z,38.53
2018-08-27T10:33:09.141Z,38.14
2018-08-27T10:34:30.146Z,38.23
2018-08-27T10:35:08.988Z,38.43
2018-08-27T10:36:08.918Z,38.33
2018-08-27T10:37:08.988Z,39.11
2018-08-27T10:38:08.781Z,38.81
2018-08-27T10:39:08.771Z,37.67
2018-08-27T10:40:29.630Z,36.90
2018-08-27T10:41:08.586Z,37.38
2018-08-27T10:42:08.495Z,37.58
2018-08-27T10:43:08.496Z,38.16
2018-08-27T10:44:08.356Z,38.25
2018-08-27T10:45:08.311Z,37.77
2018-08-27T10:46:29.200Z,37.67
2018-08-27T10:47:08.221Z,38.06
2018-08-27T10:48:08.073Z,38.45
2018-08-27T10:49:08.014Z,38.16
2018-08-27T10:50:07.969Z,39.12
2018-08-27T10:51:07.876Z,39.32
2018-08-27T10:52:28.836Z,38.93
2018-08-27T10:53:07.734Z,39.29
2018-08-27T10:54:07.749Z,39.01
2018-08-27T10:55:07.577Z,39.59
2018-08-27T10:56:07.558Z,40.65
2018-08-27T10:57:07.450Z,41.81
2018-08-27T10:58:28.545Z,42.39
2018-08-27T10:59:07.314Z,41.88
2018-08-27T11:00:07.285Z,42.75
2018-08-27T11:01:07.154Z,43.33
2018-08-27T11:02:07.194Z,44.01
2018-08-27T11:03:07.019Z,44.87
2018-08-27T11:04:27.987Z,44.42
2018-08-27T11:05:06.898Z,44.70
2018-08-27T11:06:06.909Z,44.60
2018-08-27T11:07:06.734Z,44.70
2018-08-27T11:08:06.724Z,44.90
2018-08-27T11:09:06.593Z,44.80
2018-08-27T11:10:27.524Z,44.39
2018-08-27T11:11:06.534Z,43.43
2018-08-27T11:12:06.386Z,43.74
2018-08-27T11:13:06.349Z,43.72
2018-08-27T11:14:06.237Z,44.68
2018-08-27T11:15:06.176Z,45.26
2018-08-27T11:16:27.152Z,45.84
2018-08-27T11:17:06.031Z,46.03
2018-08-27T11:18:06.074Z,46.13
2018-08-27T11:19:05.901Z,46.23
2018-08-27T11:20:05.972Z,45.94
2018-08-27T11:21:05.745Z,47.19
2018-08-27T11:22:26.675Z,47.58
2018-08-27T11:23:05.608Z,47.67
2018-08-27T11:24:05.601Z,47.22
2018-08-27T11:25:05.462Z,46.44
2018-08-27T11:26:05.514Z,47.50
2018-08-27T11:27:05.322Z,46.06
2018-08-27T11:28:26.313Z,44.32
2018-08-27T11:29:05.183Z,45.36
2018-08-27T11:30:05.225Z,45.75
2018-08-27T11:31:05.053Z,46.03
2018-08-27T11:32:05.037Z,46.33
2018-08-27T11:33:04.952Z,46.64
2018-08-27T11:34:25.937Z,46.44
2018-08-27T11:35:04.761Z,46.06
2018-08-27T11:36:04.759Z,44.92
2018-08-27T11:37:04.624Z,44.92
2018-08-27T11:38:04.661Z,44.92
2018-08-27T11:39:04.491Z,45.14
2018-08-27T11:40:25.469Z,44.56
2018-08-27T11:41:04.334Z,45.74
2018-08-27T11:42:04.386Z,44.48
2018-08-27T11:43:04.200Z,43.99
2018-08-27T11:44:04.201Z,42.96
2018-08-27T11:45:04.059Z,41.70
2018-08-27T11:46:25.006Z,43.17
2018-08-27T11:47:03.920Z,40.56
2018-08-27T11:48:03.913Z,39.97
2018-08-27T11:49:03.791Z,41.02
2018-08-27T11:50:03.886Z,41.14
2018-08-27T11:51:03.756Z,40.36
2018-08-27T11:52:24.632Z,40.75
2018-08-27T11:53:03.500Z,39.88
2018-08-27T11:54:03.550Z,39.97
2018-08-27T11:55:03.432Z,40.63
2018-08-27T11:56:03.355Z,40.25
2018-08-27T11:57:03.220Z,40.52
2018-08-27T11:58:24.255Z,42.08
2018-08-27T11:59:03.088Z,42.66
2018-08-27T12:00:03.019Z,41.41
2018-08-27T12:01:02.992Z,41.72
2018-08-27T12:02:02.903Z,41.82
2018-08-27T12:03:02.891Z,40.94
2018-08-27T12:04:23.715Z,40.75
2018-08-27T12:05:02.699Z,40.48
2018-08-27T12:06:02.616Z,39.61
2018-08-27T12:07:02.615Z,40.09
2018-08-27T12:08:02.464Z,40.09
2018-08-27T12:09:02.522Z,40.67
2018-08-27T12:10:23.318Z,40.21
2018-08-27T12:11:02.330Z,40.11
2018-08-27T12:12:02.186Z,39.53
2018-08-27T12:13:02.137Z,39.72
2018-08-27T12:14:02.051Z,40.21
2018-08-27T12:15:02.050Z,39.72
2018-08-27T12:16:22.897Z,39.82
2018-08-27T12:17:01.962Z,39.14
2018-08-27T12:18:01.775Z,38.66
2018-08-27T12:19:01.764Z,40.01
2018-08-27T12:20:01.637Z,39.34
2018-08-27T12:21:01.682Z,39.43
2018-08-27T12:22:22.496Z,40.50
2018-08-27T12:23:01.490Z,39.70
2018-08-27T12:24:01.359Z,39.90
2018-08-27T12:25:01.402Z,40.67
2018-08-27T12:26:01.222Z,40.09
2018-08-27T12:27:01.205Z,39.70
2018-08-27T12:28:22.077Z,39.80
2018-08-27T12:29:01.116Z,40.38
2018-08-27T12:30:00.947Z,40.58
2018-08-27T12:31:00.974Z,40.48
2018-08-27T12:32:00.823Z,40.96
2018-08-27T12:33:00.840Z,41.83
2018-08-27T12:34:21.660Z,41.93
2018-08-27T12:35:00.643Z,43.09
2018-08-27T12:36:00.535Z,42.71
2018-08-27T12:37:00.554Z,41.93
2018-08-27T12:38:00.411Z,42.22
2018-08-27T12:39:00.364Z,42.51
2018-08-27T12:40:21.244Z,41.64
2018-08-27T12:41:00.386Z,42.03
2018-08-27T12:42:00.130Z,42.61
2018-08-27T12:43:00.090Z,42.03
2018-08-27T12:43:59.992Z,41.83
2018-08-27T12:44:59.991Z,42.41
2018-08-27T12:46:20.834Z,43.19
2018-08-27T12:46:59.800Z,44.35
2018-08-27T12:47:59.712Z,44.35
2018-08-27T12:48:59.713Z,43.19
2018-08-27T12:49:59.575Z,43.00
2018-08-27T12:50:59.579Z,42.97
2018-08-27T12:52:20.417Z,43.46